Time;durP1;ratioP1;P1;durP2;ratioP2;P2;SDS_P1;SDS_P2;PMS_P1;PMS_P2;Temp;Humidity;BMP_temperature;BMP_pressure;BME280_temperature;BME280_humidity;BME280_pressure;Samples;Min_cycle;Max_cycle;Signal;HPM_P1;HPM_P2
2023/03/22 00:01:40;;;;;;;20.63;16.60;;;;;;;;;;5068950;28;20323;-54
2023/03/22 00:04:08;;;;;;;18.50;16.13;;;;;;;;;;5069358;28;20701;-52
2023/03/22 00:06:34;;;;;;;19.10;16.33;;;;;;;;;;5070811;28;20234;-52
2023/03/22 00:09:00;;;;;;;19.67;15.07;;;;;;;;;;5067861;28;20337;-52
2023/03/22 00:11:27;;;;;;;20.80;15.27;;;;;;;;;;5069121;28;20245;-52
2023/03/22 00:13:53;;;;;;;20.57;15.43;;;;;;;;;;5061910;28;20654;-52
2023/03/22 00:16:20;;;;;;;20.13;16.23;;;;;;;;;;5061965;28;20736;-51
2023/03/22 00:18:47;;;;;;;19.63;15.93;;;;;;;;;;5062260;28;20317;-52
2023/03/22 00:21:15;;;;;;;23.20;16.10;;;;;;;;;;5063104;28;20708;-51
2023/03/22 00:23:42;;;;;;;20.07;15.43;;;;;;;;;;5060974;28;20242;-51
2023/03/22 00:26:09;;;;;;;15.73;14.13;;;;;;;;;;5050663;28;20751;-51
2023/03/22 00:28:36;;;;;;;19.90;15.73;;;;;;;;;;5061753;28;20451;-53
2023/03/22 00:31:04;;;;;;;17.20;15.03;;;;;;;;;;5063752;28;20231;-57
2023/03/22 00:33:31;;;;;;;16.50;14.87;;;;;;;;;;5070943;28;20633;-52
2023/03/22 00:35:58;;;;;;;20.70;15.10;;;;;;;;;;5069516;28;20251;-52
2023/03/22 00:38:35;;;;;;;23.60;17.40;;;;;;;;;;5066553;28;20235;-52
2023/03/22 00:41:06;;;;;;;18.33;14.27;;;;;;;;;;5066752;28;20317;-53
2023/03/22 00:43:32;;;;;;;19.63;14.70;;;;;;;;;;5061122;28;20359;-51
2023/03/22 00:45:59;;;;;;;17.27;15.40;;;;;;;;;;5065463;28;20322;-52
2023/03/22 00:48:26;;;;;;;18.23;15.30;;;;;;;;;;5062853;28;20265;-52
2023/03/22 00:50:52;;;;;;;19.57;15.53;;;;;;;;;;5062502;28;20713;-52
2023/03/22 00:53:19;;;;;;;19.70;15.13;;;;;;;;;;5062662;28;20820;-52
2023/03/22 00:55:47;;;;;;;22.40;16.07;;;;;;;;;;5063478;28;20222;-52
2023/03/22 00:58:13;;;;;;;19.67;15.67;;;;;;;;;;5066229;28;20240;-53
2023/03/22 01:00:40;;;;;;;17.30;15.10;;;;;;;;;;5060531;28;20280;-53
2023/03/22 01:03:07;;;;;;;20.20;15.23;;;;;;;;;;5057536;28;20938;-51
2023/03/22 01:05:34;;;;;;;20.60;16.63;;;;;;;;;;5064310;28;20239;-56
2023/03/22 01:08:05;;;;;;;17.27;14.63;;;;;;;;;;5063296;28;20744;-54
2023/03/22 01:10:31;;;;;;;18.70;15.80;;;;;;;;;;5063074;28;20247;-52
2023/03/22 01:12:59;;;;;;;18.20;15.67;;;;;;;;;;5058581;28;20243;-51
2023/03/22 01:15:26;;;;;;;19.60;16.07;;;;;;;;;;5062492;28;20227;-52
2023/03/22 01:17:52;;;;;;;20.93;15.17;;;;;;;;;;5062217;28;20236;-52
2023/03/22 01:20:19;;;;;;;17.63;14.47;;;;;;;;;;5063142;28;20676;-52
2023/03/22 01:22:46;;;;;;;20.27;15.90;;;;;;;;;;5060899;28;20247;-51
2023/03/22 01:25:12;;;;;;;18.17;15.90;;;;;;;;;;5071018;28;20242;-54
2023/03/22 01:27:39;;;;;;;20.67;15.90;;;;;;;;;;5076977;28;20231;-53
2023/03/22 01:30:08;;;;;;;17.63;15.30;;;;;;;;;;5070787;28;20227;-57
2023/03/22 01:32:36;;;;;;;18.70;15.33;;;;;;;;;;5070952;28;20247;-54
2023/03/22 01:35:03;;;;;;;17.07;14.57;;;;;;;;;;5076771;28;20235;-53
2023/03/22 01:37:29;;;;;;;14.60;13.20;;;;;;;;;;5069285;28;20233;-51
2023/03/22 01:39:56;;;;;;;22.47;16.07;;;;;;;;;;5062713;28;20234;-51
2023/03/22 01:42:23;;;;;;;19.67;15.30;;;;;;;;;;5062768;28;20255;-51
2023/03/22 01:45:08;;;;;;;17.50;15.13;;;;;;;;;;5063011;28;20236;-53
2023/03/22 01:47:36;;;;;;;18.10;15.40;;;;;;;;;;5063123;28;20603;-52
2023/03/22 01:50:03;;;;;;;18.43;15.07;;;;;;;;;;5070333;28;20237;-53
2023/03/22 01:52:29;;;;;;;17.77;15.13;;;;;;;;;;5064590;28;20257;-52
2023/03/22 01:54:56;;;;;;;18.93;16.27;;;;;;;;;;5062002;28;20305;-52
2023/03/22 01:57:23;;;;;;;20.07;15.70;;;;;;;;;;5061706;28;20705;-52
2023/03/22 01:59:52;;;;;;;20.30;16.30;;;;;;;;;;5064034;28;20273;-52
2023/03/22 02:02:19;;;;;;;23.23;15.40;;;;;;;;;;5062352;28;20629;-53
2023/03/22 02:04:49;;;;;;;16.70;15.00;;;;;;;;;;5063210;28;20227;-52
2023/03/22 02:07:26;;;;;;;21.53;16.57;;;;;;;;;;5061176;28;20237;-52
2023/03/22 02:09:52;;;;;;;17.53;15.60;;;;;;;;;;5064073;28;20237;-51
2023/03/22 02:12:28;;;;;;;19.87;16.07;;;;;;;;;;5063427;28;20375;-52
2023/03/22 02:15:04;;;;;;;17.60;15.70;;;;;;;;;;5062083;28;20312;-53
2023/03/22 02:17:35;;;;;;;17.90;15.93;;;;;;;;;;5064435;28;21874;-53
2023/03/22 02:20:16;;;;;;;19.50;15.77;;;;;;;;;;5066055;28;20748;-52
2023/03/22 02:23:10;;;;;;;18.77;15.70;;;;;;;;;;5066633;28;20701;-53
2023/03/22 02:25:52;;;;;;;18.90;14.63;;;;;;;;;;5060903;28;20231;-52
2023/03/22 02:28:25;;;;;;;18.73;14.77;;;;;;;;;;5066329;28;20264;-53
2023/03/22 02:31:01;;;;;;;16.47;14.77;;;;;;;;;;5065361;28;20223;-52
2023/03/22 02:33:37;;;;;;;19.87;15.00;;;;;;;;;;5077284;28;20234;-52
2023/03/22 02:36:12;;;;;;;17.30;15.50;;;;;;;;;;5059773;28;20234;-57
2023/03/22 02:39:06;;;;;;;18.53;15.27;;;;;;;;;;5065311;28;20230;-51
2023/03/22 02:41:41;;;;;;;17.27;14.57;;;;;;;;;;5028068;28;20231;-52
2023/03/22 02:44:10;;;;;;;15.60;14.03;;;;;;;;;;5061838;28;20417;-52
2023/03/22 02:46:42;;;;;;;17.70;15.30;;;;;;;;;;5067071;28;20315;-54
2023/03/22 02:49:14;;;;;;;14.90;13.27;;;;;;;;;;5065145;28;20231;-51
2023/03/22 02:51:43;;;;;;;17.90;14.70;;;;;;;;;;5067818;28;20234;-51
2023/03/22 02:54:14;;;;;;;19.20;16.23;;;;;;;;;;5066905;28;20258;-52
2023/03/22 02:56:44;;;;;;;20.87;15.20;;;;;;;;;;5066652;28;20231;-53
2023/03/22 02:59:11;;;;;;;19.60;14.93;;;;;;;;;;5063252;28;20227;-52
2023/03/22 03:01:39;;;;;;;16.17;14.27;;;;;;;;;;5064908;28;20235;-61
2023/03/22 03:04:09;;;;;;;15.13;13.53;;;;;;;;;;5065935;28;20231;-53
2023/03/22 03:06:38;;;;;;;17.43;15.37;;;;;;;;;;5067396;28;20388;-51
2023/03/22 03:09:05;;;;;;;18.27;14.63;;;;;;;;;;5068555;28;20661;-52
2023/03/22 03:11:32;;;;;;;17.43;15.37;;;;;;;;;;5072579;28;20239;-53
2023/03/22 03:14:00;;;;;;;18.13;15.53;;;;;;;;;;5075187;28;20235;-52
2023/03/22 03:16:28;;;;;;;16.73;14.73;;;;;;;;;;5073751;28;20227;-53
2023/03/22 03:18:58;;;;;;;17.93;14.10;;;;;;;;;;5072304;28;21346;-53
2023/03/22 03:21:29;;;;;;;16.13;14.50;;;;;;;;;;5074824;28;20250;-52
2023/03/22 03:24:00;;;;;;;15.10;13.30;;;;;;;;;;5070005;28;20262;-52
2023/03/22 03:26:29;;;;;;;17.13;15.23;;;;;;;;;;5087069;28;20253;-53
2023/03/22 03:28:57;;;;;;;18.67;15.53;;;;;;;;;;5078033;28;20728;-53
2023/03/22 03:31:29;;;;;;;17.87;14.83;;;;;;;;;;5078187;28;20313;-51
2023/03/22 03:33:59;;;;;;;20.53;16.40;;;;;;;;;;5066176;28;20235;-53
2023/03/22 03:36:27;;;;;;;16.00;14.40;;;;;;;;;;5072192;28;20257;-52
2023/03/22 03:38:54;;;;;;;18.80;13.97;;;;;;;;;;5070845;28;20732;-51
2023/03/22 03:41:22;;;;;;;17.00;14.00;;;;;;;;;;5070398;28;20253;-52
2023/03/22 03:43:50;;;;;;;16.90;14.63;;;;;;;;;;5071965;28;20228;-53
2023/03/22 03:46:17;;;;;;;18.23;15.40;;;;;;;;;;5069698;28;20242;-52
2023/03/22 03:48:47;;;;;;;18.87;15.47;;;;;;;;;;5069959;28;20288;-52
2023/03/22 03:51:14;;;;;;;19.70;14.70;;;;;;;;;;5076308;28;20231;-51
2023/03/22 03:53:41;;;;;;;16.17;14.10;;;;;;;;;;5074167;28;20227;-53
2023/03/22 03:56:08;;;;;;;16.53;14.77;;;;;;;;;;5072409;28;20228;-53
2023/03/22 03:58:34;;;;;;;15.27;13.57;;;;;;;;;;5068436;28;20258;-58
2023/03/22 04:01:02;;;;;;;15.90;14.20;;;;;;;;;;5072789;28;20228;-51
2023/03/22 04:03:29;;;;;;;19.47;14.23;;;;;;;;;;5074212;28;20239;-52
2023/03/22 04:05:58;;;;;;;16.33;14.10;;;;;;;;;;5075031;28;20270;-52
2023/03/22 04:08:25;;;;;;;16.63;14.57;;;;;;;;;;5074762;28;20665;-52
2023/03/22 04:10:52;;;;;;;15.23;13.67;;;;;;;;;;5074046;28;20220;-54
2023/03/22 04:13:20;;;;;;;16.97;13.87;;;;;;;;;;5076272;28;20298;-53
2023/03/22 04:15:46;;;;;;;16.40;13.77;;;;;;;;;;5075959;28;20223;-55
2023/03/22 04:18:13;;;;;;;15.87;14.27;;;;;;;;;;5067105;28;20898;-51
2023/03/22 04:20:41;;;;;;;14.83;13.23;;;;;;;;;;5064841;28;20253;-51
2023/03/22 04:23:09;;;;;;;17.20;15.30;;;;;;;;;;5061551;28;20244;-52
2023/03/22 04:25:36;;;;;;;15.10;13.53;;;;;;;;;;5061807;28;20334;-54
2023/03/22 04:28:03;;;;;;;17.63;15.43;;;;;;;;;;5064885;28;20296;-53
2023/03/22 04:30:34;;;;;;;18.50;13.20;;;;;;;;;;5063488;28;20239;-52
2023/03/22 04:33:05;;;;;;;17.27;14.07;;;;;;;;;;5064788;28;20261;-52
2023/03/22 04:35:32;;;;;;;16.27;14.57;;;;;;;;;;5063852;28;20812;-52
2023/03/22 04:38:00;;;;;;;16.47;13.33;;;;;;;;;;5065375;28;20234;-52
2023/03/22 04:40:30;;;;;;;15.03;13.53;;;;;;;;;;5063850;28;20733;-52
2023/03/22 04:42:57;;;;;;;16.53;14.83;;;;;;;;;;5063398;28;20235;-51
2023/03/22 04:45:28;;;;;;;16.63;13.27;;;;;;;;;;5063297;28;20608;-52
2023/03/22 04:47:54;;;;;;;15.27;13.27;;;;;;;;;;5057688;28;20419;-52
2023/03/22 04:50:21;;;;;;;17.23;13.77;;;;;;;;;;5062187;28;20227;-52
2023/03/22 04:52:48;;;;;;;14.83;12.57;;;;;;;;;;5064644;28;20231;-52
2023/03/22 04:55:15;;;;;;;15.63;13.77;;;;;;;;;;5055737;28;20240;-52
2023/03/22 04:57:43;;;;;;;17.30;13.50;;;;;;;;;;5056472;28;20249;-54
2023/03/22 05:00:10;;;;;;;16.63;13.73;;;;;;;;;;5060474;28;20356;-52
2023/03/22 05:02:39;;;;;;;14.97;12.40;;;;;;;;;;5063946;28;20227;-51
2023/03/22 05:05:06;;;;;;;17.33;13.13;;;;;;;;;;5064113;28;20320;-52
2023/03/22 05:07:32;;;;;;;17.10;14.33;;;;;;;;;;5061598;28;20235;-52
2023/03/22 05:09:59;;;;;;;15.87;13.17;;;;;;;;;;5058192;28;20299;-52
2023/03/22 05:12:35;;;;;;;13.93;11.93;;;;;;;;;;5062348;28;20231;-54
2023/03/22 05:15:04;;;;;;;13.67;12.20;;;;;;;;;;5057965;28;20250;-52
2023/03/22 05:17:31;;;;;;;15.30;12.63;;;;;;;;;;5063151;28;20231;-52
2023/03/22 05:19:58;;;;;;;16.07;12.90;;;;;;;;;;5065245;28;20588;-52
2023/03/22 05:22:24;;;;;;;16.63;13.67;;;;;;;;;;5063037;28;20316;-53
2023/03/22 05:24:51;;;;;;;17.53;12.37;;;;;;;;;;5059658;28;20231;-53
2023/03/22 05:27:29;;;;;;;15.37;13.07;;;;;;;;;;5063417;28;20254;-53
2023/03/22 05:29:56;;;;;;;13.30;11.90;;;;;;;;;;5057745;28;20715;-53
2023/03/22 05:32:24;;;;;;;15.67;11.30;;;;;;;;;;5067386;28;20265;-53
2023/03/22 05:34:51;;;;;;;15.40;12.47;;;;;;;;;;5062629;28;20239;-52
2023/03/22 05:37:20;;;;;;;17.87;13.87;;;;;;;;;;5063252;28;20234;-53
2023/03/22 05:39:46;;;;;;;16.10;12.77;;;;;;;;;;5062889;28;20226;-52
2023/03/22 05:42:13;;;;;;;16.77;12.80;;;;;;;;;;5061420;28;20729;-52
2023/03/22 05:44:39;;;;;;;15.10;12.93;;;;;;;;;;5062634;28;20348;-52
2023/03/22 05:47:06;;;;;;;15.63;13.27;;;;;;;;;;5057684;28;20402;-52
2023/03/22 05:49:34;;;;;;;15.57;12.43;;;;;;;;;;5060709;28;20223;-53
2023/03/22 05:52:03;;;;;;;14.70;11.83;;;;;;;;;;5062491;28;20818;-53
2023/03/22 05:54:30;;;;;;;13.80;12.23;;;;;;;;;;5064133;28;20231;-53
2023/03/22 05:56:56;;;;;;;16.30;12.20;;;;;;;;;;5061672;28;20227;-53
2023/03/22 05:59:23;;;;;;;16.30;12.63;;;;;;;;;;5064000;28;20231;-54
2023/03/22 06:01:49;;;;;;;16.50;12.83;;;;;;;;;;5067371;28;20243;-52
2023/03/22 06:04:17;;;;;;;14.97;12.30;;;;;;;;;;5066986;28;20226;-53
2023/03/22 06:06:45;;;;;;;14.77;12.07;;;;;;;;;;5065161;28;20231;-53
2023/03/22 06:09:13;;;;;;;16.30;12.23;;;;;;;;;;5070840;28;20226;-54
2023/03/22 06:11:39;;;;;;;13.03;10.57;;;;;;;;;;5073123;28;20263;-52
2023/03/22 06:14:06;;;;;;;17.57;11.83;;;;;;;;;;5062266;28;20704;-53
2023/03/22 06:16:33;;;;;;;13.00;11.20;;;;;;;;;;5063981;28;20717;-53
2023/03/22 06:18:59;;;;;;;15.17;12.07;;;;;;;;;;5061069;28;20231;-52
2023/03/22 06:21:26;;;;;;;14.80;12.40;;;;;;;;;;5062275;28;20237;-54
2023/03/22 06:23:54;;;;;;;17.17;11.90;;;;;;;;;;5062908;28;20227;-57
2023/03/22 06:26:20;;;;;;;16.60;12.40;;;;;;;;;;5064676;28;20242;-52
2023/03/22 06:28:47;;;;;;;15.07;13.30;;;;;;;;;;5063995;28;20234;-53
2023/03/22 06:31:13;;;;;;;15.10;12.83;;;;;;;;;;5065514;28;20234;-53
2023/03/22 06:33:40;;;;;;;15.33;13.27;;;;;;;;;;5057398;28;20595;-53
2023/03/22 06:36:06;;;;;;;16.37;13.00;;;;;;;;;;5066641;28;20219;-53
2023/03/22 06:38:33;;;;;;;15.00;12.60;;;;;;;;;;5062472;28;20238;-51
2023/03/22 06:41:00;;;;;;;16.27;13.13;;;;;;;;;;5064039;28;20241;-52
2023/03/22 06:43:27;;;;;;;18.90;13.30;;;;;;;;;;5064164;28;20735;-51
2023/03/22 06:45:53;;;;;;;16.50;13.20;;;;;;;;;;5061818;28;20607;-54
2023/03/22 06:48:20;;;;;;;17.30;12.40;;;;;;;;;;5062588;28;20238;-52
2023/03/22 06:50:46;;;;;;;14.40;12.27;;;;;;;;;;5060406;28;20251;-52
2023/03/22 06:53:13;;;;;;;16.67;13.53;;;;;;;;;;5063948;28;20231;-53
2023/03/22 06:55:39;;;;;;;15.90;12.93;;;;;;;;;;5066560;28;20327;-52
2023/03/22 06:58:07;;;;;;;16.10;12.37;;;;;;;;;;5065113;28;20227;-52
2023/03/22 07:00:34;;;;;;;14.57;12.23;;;;;;;;;;5063505;28;20361;-51
2023/03/22 07:03:00;;;;;;;17.93;12.63;;;;;;;;;;5063490;28;20237;-54
2023/03/22 07:05:27;;;;;;;15.97;13.07;;;;;;;;;;5067300;28;20247;-51
2023/03/22 07:07:54;;;;;;;19.37;13.33;;;;;;;;;;5066834;28;20231;-51
2023/03/22 07:10:20;;;;;;;16.57;13.37;;;;;;;;;;5062879;28;20552;-53
2023/03/22 07:12:47;;;;;;;17.50;13.60;;;;;;;;;;5064496;28;20628;-52
2023/03/22 07:15:16;;;;;;;19.37;13.00;;;;;;;;;;5065665;28;20238;-51
2023/03/22 07:17:42;;;;;;;13.73;11.87;;;;;;;;;;5066781;28;20219;-53
2023/03/22 07:20:09;;;;;;;17.17;14.07;;;;;;;;;;5064070;28;20253;-52
2023/03/22 07:22:36;;;;;;;16.20;12.40;;;;;;;;;;5064848;28;20326;-53
2023/03/22 07:25:02;;;;;;;16.20;13.80;;;;;;;;;;5071015;28;20226;-53
2023/03/22 07:27:29;;;;;;;16.97;13.53;;;;;;;;;;5067093;28;20246;-55
2023/03/22 07:29:56;;;;;;;19.13;13.77;;;;;;;;;;5064931;28;20990;-52
2023/03/22 07:32:24;;;;;;;16.87;13.43;;;;;;;;;;5055594;28;20231;-52
2023/03/22 07:34:50;;;;;;;24.27;18.80;;;;;;;;;;5069371;28;20296;-52
2023/03/22 07:37:17;;;;;;;16.43;12.23;;;;;;;;;;5069242;28;20243;-51
2023/03/22 07:39:43;;;;;;;17.27;12.87;;;;;;;;;;5069034;28;20236;-53
2023/03/22 07:42:10;;;;;;;16.37;13.60;;;;;;;;;;5067193;28;20243;-53
2023/03/22 07:44:36;;;;;;;15.13;12.67;;;;;;;;;;5063039;28;20772;-53
2023/03/22 07:47:03;;;;;;;17.63;12.90;;;;;;;;;;5059726;28;20236;-53
2023/03/22 07:49:31;;;;;;;15.63;12.87;;;;;;;;;;5063024;28;20238;-52
2023/03/22 07:51:58;;;;;;;17.10;13.13;;;;;;;;;;5062939;28;20326;-51
2023/03/22 07:54:24;;;;;;;15.60;13.07;;;;;;;;;;5063895;28;20292;-58
2023/03/22 07:56:51;;;;;;;18.50;12.97;;;;;;;;;;5062024;28;20647;-52
2023/03/22 07:59:17;;;;;;;14.80;12.33;;;;;;;;;;5063587;28;20402;-53
2023/03/22 08:01:44;;;;;;;13.57;12.10;;;;;;;;;;5059013;28;20774;-51
2023/03/22 08:04:11;;;;;;;15.83;13.03;;;;;;;;;;5058873;28;20227;-52
2023/03/22 08:06:41;;;;;;;15.50;13.43;;;;;;;;;;5061583;28;20292;-52
2023/03/22 08:09:08;;;;;;;16.30;13.57;;;;;;;;;;5062835;28;20247;-52
2023/03/22 08:11:35;;;;;;;16.47;13.57;;;;;;;;;;5061683;28;20239;-50
2023/03/22 08:14:01;;;;;;;14.50;12.00;;;;;;;;;;5062417;28;20471;-54
2023/03/22 08:16:28;;;;;;;15.87;12.20;;;;;;;;;;5044464;28;20247;-51
2023/03/22 08:18:54;;;;;;;14.73;12.63;;;;;;;;;;5060760;28;20238;-57
2023/03/22 08:21:21;;;;;;;17.73;12.47;;;;;;;;;;5072987;28;20716;-52
2023/03/22 08:23:49;;;;;;;14.77;13.17;;;;;;;;;;5074029;28;20227;-54
2023/03/22 08:26:16;;;;;;;14.60;11.33;;;;;;;;;;5062518;28;20239;-51
2023/03/22 08:28:43;;;;;;;17.57;12.93;;;;;;;;;;5057741;28;20230;-54
2023/03/22 08:31:10;;;;;;;14.17;12.00;;;;;;;;;;5061664;28;20227;-53
2023/03/22 08:33:37;;;;;;;15.87;11.57;;;;;;;;;;5063755;28;20689;-52
2023/03/22 08:36:04;;;;;;;19.83;11.33;;;;;;;;;;5063517;28;20230;-54
2023/03/22 08:38:31;;;;;;;12.50;11.20;;;;;;;;;;5070348;27;20671;-51
2023/03/22 08:40:59;;;;;;;12.57;11.23;;;;;;;;;;5062613;28;20800;-52
2023/03/22 08:43:25;;;;;;;14.83;10.47;;;;;;;;;;5064730;28;20265;-53
2023/03/22 08:45:52;;;;;;;16.27;11.20;;;;;;;;;;5067520;28;20263;-53
2023/03/22 08:48:18;;;;;;;13.90;11.37;;;;;;;;;;5062197;28;20748;-55
2023/03/22 08:50:45;;;;;;;18.63;11.10;;;;;;;;;;5064103;28;20249;-56
2023/03/22 08:53:12;;;;;;;12.83;11.30;;;;;;;;;;5067033;28;20235;-53
2023/03/22 08:55:43;;;;;;;13.70;10.37;;;;;;;;;;5062261;28;20234;-52
2023/03/22 08:58:12;;;;;;;12.17;10.13;;;;;;;;;;5063180;28;20233;-54
2023/03/22 09:00:39;;;;;;;12.70;10.73;;;;;;;;;;5056979;28;20262;-52
2023/03/22 09:03:05;;;;;;;13.43;10.70;;;;;;;;;;5064762;28;20231;-60
2023/03/22 09:05:32;;;;;;;12.03;10.73;;;;;;;;;;5064111;28;20317;-52
2023/03/22 09:07:58;;;;;;;13.57;9.95;;;;;;;;;;5062479;28;20372;-52
2023/03/22 09:10:25;;;;;;;13.73;10.03;;;;;;;;;;5066563;28;20740;-51
2023/03/22 09:12:51;;;;;;;12.87;10.73;;;;;;;;;;5064450;28;20741;-53
2023/03/22 09:15:19;;;;;;;15.27;11.07;;;;;;;;;;5067036;28;20565;-53
2023/03/22 09:17:46;;;;;;;14.13;9.70;;;;;;;;;;5068324;28;20223;-53
2023/03/22 09:20:12;;;;;;;13.83;10.70;;;;;;;;;;5068782;28;20224;-51
2023/03/22 09:22:39;;;;;;;14.57;10.90;;;;;;;;;;5063770;28;20255;-52
2023/03/22 09:25:06;;;;;;;11.48;10.25;;;;;;;;;;5062251;28;20250;-54
2023/03/22 09:27:32;;;;;;;13.03;10.50;;;;;;;;;;5063362;28;20257;-52
2023/03/22 09:29:59;;;;;;;10.48;9.10;;;;;;;;;;5066208;28;20255;-53
2023/03/22 09:32:27;;;;;;;11.60;9.90;;;;;;;;;;5064084;28;20253;-53
2023/03/22 09:34:54;;;;;;;10.88;9.77;;;;;;;;;;5067017;28;20313;-52
2023/03/22 09:37:20;;;;;;;11.85;10.13;;;;;;;;;;5065889;28;20311;-53
2023/03/22 09:39:48;;;;;;;13.98;10.73;;;;;;;;;;5064741;28;20232;-54
2023/03/22 09:42:21;;;;;;;10.82;9.02;;;;;;;;;;5065383;28;20317;-53
2023/03/22 09:44:48;;;;;;;12.50;9.18;;;;;;;;;;5065624;28;20246;-53
2023/03/22 09:47:16;;;;;;;9.88;8.63;;;;;;;;;;5068784;28;20237;-52
2023/03/22 09:49:45;;;;;;;10.77;8.30;;;;;;;;;;5060469;28;20306;-52
2023/03/22 09:52:13;;;;;;;13.05;9.93;;;;;;;;;;5055257;28;20270;-53
2023/03/22 09:54:41;;;;;;;14.10;10.65;;;;;;;;;;5065333;28;20228;-55
2023/03/22 09:57:09;;;;;;;9.52;8.50;;;;;;;;;;5065898;28;20300;-53
2023/03/22 09:59:40;;;;;;;10.35;9.25;;;;;;;;;;5065512;28;20644;-54
2023/03/22 10:02:18;;;;;;;11.68;8.63;;;;;;;;;;5062899;28;20238;-52
2023/03/22 10:04:51;;;;;;;9.55;8.65;;;;;;;;;;5065377;28;20230;-57
2023/03/22 10:07:22;;;;;;;9.98;8.77;;;;;;;;;;5064777;28;20228;-52
2023/03/22 10:09:53;;;;;;;11.80;8.77;;;;;;;;;;5062425;28;20235;-53
2023/03/22 10:12:24;;;;;;;10.55;8.48;;;;;;;;;;5060579;28;20269;-53
2023/03/22 10:14:51;;;;;;;10.05;7.93;;;;;;;;;;5063278;28;20263;-53
2023/03/22 10:17:19;;;;;;;11.80;8.20;;;;;;;;;;5063065;28;20224;-53
2023/03/22 10:19:50;;;;;;;8.95;7.22;;;;;;;;;;5065336;28;20323;-52
2023/03/22 10:22:20;;;;;;;8.25;7.45;;;;;;;;;;5061948;28;20620;-51
2023/03/22 10:24:48;;;;;;;7.93;6.30;;;;;;;;;;5062574;28;20608;-51
2023/03/22 10:27:16;;;;;;;10.43;7.50;;;;;;;;;;5064875;28;20231;-53
2023/03/22 10:29:46;;;;;;;9.55;7.43;;;;;;;;;;5066559;28;20305;-52
2023/03/22 10:32:16;;;;;;;9.40;6.82;;;;;;;;;;5060291;28;20740;-54
2023/03/22 10:34:43;;;;;;;7.63;6.93;;;;;;;;;;5069183;28;20662;-53
2023/03/22 10:37:13;;;;;;;7.38;6.50;;;;;;;;;;5068169;28;20235;-52
2023/03/22 10:39:43;;;;;;;10.63;7.50;;;;;;;;;;5068692;28;20322;-52
2023/03/22 10:42:13;;;;;;;10.25;7.63;;;;;;;;;;5070383;28;20320;-53
2023/03/22 10:44:44;;;;;;;7.40;6.60;;;;;;;;;;5061489;28;20247;-53
2023/03/22 10:47:11;;;;;;;9.10;7.63;;;;;;;;;;5065161;28;20231;-52
2023/03/22 10:49:39;;;;;;;8.40;6.68;;;;;;;;;;5065127;28;20322;-52
2023/03/22 10:52:12;;;;;;;7.00;6.38;;;;;;;;;;5071073;28;20710;-53
2023/03/22 10:54:39;;;;;;;9.93;7.28;;;;;;;;;;5065488;28;20227;-53
2023/03/22 10:57:06;;;;;;;6.68;5.97;;;;;;;;;;5066985;28;20323;-53
2023/03/22 10:59:43;;;;;;;11.32;6.90;;;;;;;;;;5062328;28;20306;-53
2023/03/22 11:02:16;;;;;;;5.97;4.93;;;;;;;;;;5063904;28;20432;-52
2023/03/22 11:04:46;;;;;;;5.45;4.93;;;;;;;;;;5062636;28;20637;-55
2023/03/22 11:07:15;;;;;;;6.07;5.57;;;;;;;;;;5068549;28;20235;-52
2023/03/22 11:09:42;;;;;;;6.68;5.88;;;;;;;;;;5065024;28;20231;-51
2023/03/22 11:12:10;;;;;;;6.82;5.65;;;;;;;;;;5066141;28;20322;-53
2023/03/22 11:14:41;;;;;;;8.95;5.70;;;;;;;;;;5062483;28;20227;-53
2023/03/22 11:17:08;;;;;;;8.30;6.63;;;;;;;;;;5059759;28;20234;-54
2023/03/22 11:19:36;;;;;;;6.70;6.10;;;;;;;;;;5068719;28;20223;-52
2023/03/22 11:22:04;;;;;;;7.40;5.68;;;;;;;;;;5062289;28;20231;-53
2023/03/22 11:24:31;;;;;;;5.78;4.50;;;;;;;;;;5073989;28;20311;-53
2023/03/22 11:27:02;;;;;;;6.97;5.15;;;;;;;;;;5075560;28;20235;-54
2023/03/22 11:29:38;;;;;;;7.57;5.50;;;;;;;;;;5075192;28;20656;-52
2023/03/22 11:32:19;;;;;;;5.45;4.68;;;;;;;;;;5080770;28;20231;-54
2023/03/22 11:34:46;;;;;;;4.90;4.10;;;;;;;;;;5081006;28;20287;-53
2023/03/22 11:37:16;;;;;;;4.18;3.78;;;;;;;;;;5074931;28;20266;-51
2023/03/22 11:39:45;;;;;;;4.50;4.10;;;;;;;;;;5059038;28;20231;-53
2023/03/22 11:42:17;;;;;;;4.72;4.32;;;;;;;;;;5069892;28;20259;-52
2023/03/22 11:44:45;;;;;;;6.80;6.10;;;;;;;;;;5066008;28;20231;-53
2023/03/22 11:47:12;;;;;;;4.40;4.00;;;;;;;;;;5059283;28;20693;-53
2023/03/22 11:49:43;;;;;;;5.57;4.68;;;;;;;;;;5061152;28;20231;-52
2023/03/22 11:52:11;;;;;;;4.05;3.63;;;;;;;;;;5064482;28;20242;-52
2023/03/22 11:54:39;;;;;;;6.18;3.85;;;;;;;;;;5065390;28;20734;-52
2023/03/22 11:57:09;;;;;;;3.92;3.63;;;;;;;;;;5064629;28;20231;-53
2023/03/22 11:59:37;;;;;;;5.07;4.22;;;;;;;;;;5055059;28;20590;-52
2023/03/22 12:02:14;;;;;;;7.45;6.38;;;;;;;;;;5058135;28;20242;-52
2023/03/22 12:04:41;;;;;;;4.70;3.47;;;;;;;;;;5062152;28;20219;-53
2023/03/22 12:07:12;;;;;;;4.28;3.75;;;;;;;;;;5064047;28;20237;-53
2023/03/22 12:09:40;;;;;;;4.03;3.72;;;;;;;;;;5063966;28;20239;-54
2023/03/22 12:12:10;;;;;;;5.30;3.47;;;;;;;;;;5063302;28;20713;-55
2023/03/22 12:14:40;;;;;;;6.90;4.40;;;;;;;;;;5063470;28;20749;-51
2023/03/22 12:17:10;;;;;;;4.40;3.83;;;;;;;;;;5059514;28;20528;-53
2023/03/22 12:19:41;;;;;;;4.75;3.75;;;;;;;;;;5063403;28;20227;-52
2023/03/22 12:22:11;;;;;;;5.68;3.58;;;;;;;;;;5061226;28;20238;-53
2023/03/22 12:24:38;;;;;;;5.88;3.95;;;;;;;;;;5070528;28;20251;-54
2023/03/22 12:27:06;;;;;;;6.15;4.38;;;;;;;;;;5061960;28;20237;-54
2023/03/22 12:29:33;;;;;;;7.57;4.50;;;;;;;;;;5063714;28;20290;-52
2023/03/22 12:32:02;;;;;;;4.18;3.78;;;;;;;;;;5068506;28;20448;-53
2023/03/22 12:34:35;;;;;;;4.35;3.95;;;;;;;;;;5064020;28;20258;-52
2023/03/22 12:37:03;;;;;;;6.93;4.75;;;;;;;;;;5063319;28;20239;-52
2023/03/22 12:39:33;;;;;;;5.90;4.40;;;;;;;;;;5061472;28;20607;-54
2023/03/22 12:42:02;;;;;;;4.13;3.80;;;;;;;;;;5061058;28;20235;-52
2023/03/22 12:44:31;;;;;;;5.03;4.35;;;;;;;;;;5063771;28;20231;-52
2023/03/22 12:46:59;;;;;;;4.40;3.67;;;;;;;;;;5062835;28;20248;-54
2023/03/22 12:49:27;;;;;;;8.52;4.38;;;;;;;;;;5065364;28;20241;-52
2023/03/22 12:51:59;;;;;;;5.18;4.18;;;;;;;;;;5064261;28;20238;-51
2023/03/22 12:54:26;;;;;;;6.97;3.95;;;;;;;;;;5066187;28;20303;-53
2023/03/22 12:56:53;;;;;;;6.70;4.65;;;;;;;;;;5065130;28;20235;-51
2023/03/22 12:59:20;;;;;;;6.10;3.97;;;;;;;;;;5066210;28;20277;-51
2023/03/22 13:01:50;;;;;;;5.25;4.75;;;;;;;;;;5060994;28;20231;-51
2023/03/22 13:04:27;;;;;;;5.55;4.15;;;;;;;;;;5063011;28;20227;-52
2023/03/22 13:07:07;;;;;;;5.15;3.65;;;;;;;;;;5063353;28;20242;-54
2023/03/22 13:09:39;;;;;;;5.78;2.85;;;;;;;;;;5065754;28;20856;-51
2023/03/22 13:12:24;;;;;;;2.72;2.50;;;;;;;;;;5057140;28;20331;-52
2023/03/22 13:14:56;;;;;;;6.22;3.28;;;;;;;;;;5060613;28;20231;-53
2023/03/22 13:17:35;;;;;;;3.78;2.75;;;;;;;;;;5059337;28;20246;-53
2023/03/22 13:20:22;;;;;;;6.13;3.08;;;;;;;;;;5062476;28;20227;-52
2023/03/22 13:23:00;;;;;;;2.53;2.30;;;;;;;;;;5065578;28;20245;-53
2023/03/22 13:25:33;;;;;;;7.22;3.58;;;;;;;;;;5069775;28;20231;-51
2023/03/22 13:28:02;;;;;;;6.35;3.03;;;;;;;;;;5067004;28;20232;-53
2023/03/22 13:30:30;;;;;;;3.40;2.88;;;;;;;;;;5059579;28;20318;-52
2023/03/22 13:33:02;;;;;;;4.38;1.88;;;;;;;;;;5066253;28;20261;-53
2023/03/22 13:35:35;;;;;;;2.92;2.40;;;;;;;;;;5066930;28;20319;-51
2023/03/22 13:38:06;;;;;;;3.67;2.30;;;;;;;;;;5060531;28;20298;-53
2023/03/22 13:40:34;;;;;;;5.05;2.40;;;;;;;;;;5065691;28;20253;-56
2023/03/22 13:43:11;;;;;;;5.13;2.20;;;;;;;;;;5057834;28;20235;-52
2023/03/22 13:45:56;;;;;;;5.32;2.50;;;;;;;;;;5057106;28;20318;-56
2023/03/22 13:48:29;;;;;;;2.65;2.40;;;;;;;;;;5062279;28;20819;-51
2023/03/22 13:50:57;;;;;;;3.47;1.90;;;;;;;;;;5062170;28;20231;-53
2023/03/22 13:53:29;;;;;;;3.08;2.33;;;;;;;;;;5061680;28;20330;-52
2023/03/22 13:55:59;;;;;;;3.25;2.28;;;;;;;;;;5062327;28;20227;-52
2023/03/22 13:58:34;;;;;;;2.55;2.20;;;;;;;;;;5058330;28;20243;-52
2023/03/22 14:01:02;;;;;;;2.95;2.28;;;;;;;;;;5058621;28;20701;-53
2023/03/22 14:03:30;;;;;;;4.85;2.28;;;;;;;;;;5061957;28;20243;-54
2023/03/22 14:06:03;;;;;;;2.22;2.00;;;;;;;;;;5068918;28;20788;-51
2023/03/22 14:08:32;;;;;;;3.38;2.35;;;;;;;;;;5066588;28;20309;-52
2023/03/22 14:11:02;;;;;;;5.60;3.03;;;;;;;;;;5065456;28;20241;-52
2023/03/22 14:13:31;;;;;;;3.70;2.70;;;;;;;;;;5066823;28;20243;-52
2023/03/22 14:16:02;;;;;;;3.88;2.03;;;;;;;;;;5066597;28;20234;-53
2023/03/22 14:18:30;;;;;;;3.17;2.42;;;;;;;;;;5065604;28;20733;-53
2023/03/22 14:20:57;;;;;;;3.13;2.80;;;;;;;;;;5066945;28;20338;-51
2023/03/22 14:23:26;;;;;;;6.78;2.97;;;;;;;;;;5064891;28;20235;-53
2023/03/22 14:25:56;;;;;;;3.45;2.55;;;;;;;;;;5066836;28;20230;-51
2023/03/22 14:28:31;;;;;;;2.70;2.25;;;;;;;;;;5063168;28;20245;-51
2023/03/22 14:30:58;;;;;;;5.13;2.53;;;;;;;;;;5067549;28;20300;-54
2023/03/22 14:33:27;;;;;;;2.42;2.03;;;;;;;;;;5066934;28;20261;-51
2023/03/22 14:35:56;;;;;;;4.05;2.17;;;;;;;;;;5067439;28;20235;-52